createdAt,value
2023-03-26T00:00:45.455Z,6.00
2023-03-26T00:02:14.323Z,6.80
2023-03-26T00:10:11.408Z,6.50
2023-03-26T00:13:12.100Z,7.10
2023-03-26T00:14:42.880Z,6.30
2023-03-26T00:16:12.311Z,7.20
2023-03-26T00:21:58.235Z,7.10
2023-03-26T00:25:36.729Z,7.00
2023-03-26T00:31:11.784Z,7.50
2023-03-26T00:33:28.730Z,6.30
2023-03-26T00:35:26.586Z,5.90
2023-03-26T00:38:03.500Z,6.60
2023-03-26T00:41:01.129Z,6.90
2023-03-26T00:42:30.081Z,7.10
2023-03-26T00:44:32.452Z,6.30
2023-03-26T00:46:19.232Z,6.90
2023-03-26T00:51:02.982Z,7.20
2023-03-26T00:53:02.566Z,6.70
2023-03-26T00:58:15.255Z,7.70
2023-03-26T01:01:17.421Z,7.00
2023-03-26T01:03:27.707Z,7.70
2023-03-26T01:06:06.152Z,6.60
2023-03-26T01:09:29.586Z,9.20
2023-03-26T01:15:08.120Z,8.50
2023-03-26T01:21:30.718Z,7.30
2023-03-26T01:23:30.633Z,8.10
2023-03-26T01:27:43.988Z,9.50
2023-03-26T01:31:00.391Z,8.40
2023-03-26T01:33:30.491Z,9.60
2023-03-26T01:36:26.835Z,9.90
2023-03-26T01:46:28.613Z,9.00
2023-03-26T01:49:36.573Z,9.10
2023-03-26T01:51:36.370Z,9.80
2023-03-26T01:54:13.037Z,9.10
2023-03-26T01:56:30.353Z,8.90
2023-03-26T02:00:18.562Z,8.90
2023-03-26T02:03:11.086Z,8.80
2023-03-26T02:06:16.327Z,9.10
2023-03-26T02:10:09.321Z,9.70
2023-03-26T02:15:13.255Z,10.20
2023-03-26T02:17:53.213Z,10.20
2023-03-26T02:19:22.138Z,10.20
2023-03-26T02:22:16.153Z,9.40
2023-03-26T02:23:42.710Z,10.60
2023-03-26T02:30:30.795Z,10.70
2023-03-26T02:36:16.937Z,11.20
2023-03-26T02:39:09.560Z,9.20
2023-03-26T02:44:21.915Z,10.50
2023-03-26T02:48:06.950Z,11.50
2023-03-26T02:50:37.748Z,11.00
2023-03-26T02:53:29.794Z,11.10
2023-03-26T02:55:31.503Z,9.70
2023-03-26T02:57:01.558Z,10.30
2023-03-26T02:59:30.627Z,9.90
2023-03-26T03:08:58.411Z,9.60
2023-03-26T03:11:57.954Z,8.60
2023-03-26T03:14:31.792Z,9.50
2023-03-26T03:17:31.969Z,9.30
2023-03-26T03:26:49.745Z,8.40
2023-03-26T03:34:36.130Z,7.80
2023-03-26T03:37:52.767Z,9.20
2023-03-26T03:39:23.464Z,9.20
2023-03-26T03:48:16.361Z,9.20
2023-03-26T03:53:25.180Z,9.20
2023-03-26T03:55:33.786Z,8.70
2023-03-26T03:57:02.829Z,9.30
2023-03-26T04:00:52.352Z,9.20
2023-03-26T04:02:51.169Z,8.40
2023-03-26T04:04:24.886Z,9.00
2023-03-26T04:09:58.029Z,8.50
2023-03-26T04:14:46.057Z,9.40
2023-03-26T04:18:51.190Z,7.70
2023-03-26T04:22:36.832Z,8.70
2023-03-26T04:27:11.254Z,10.20
2023-03-26T04:34:07.117Z,8.90
2023-03-26T04:38:40.472Z,8.90
2023-03-26T04:51:08.246Z,9.10
2023-03-26T04:52:38.101Z,9.00
2023-03-26T04:55:14.849Z,8.30
2023-03-26T04:57:01.209Z,8.90
2023-03-26T05:00:13.875Z,9.30
2023-03-26T05:01:42.346Z,10.00
2023-03-26T05:03:13.087Z,9.20
2023-03-26T05:05:33.615Z,10.40
2023-03-26T05:09:25.373Z,10.20
2023-03-26T05:24:05.101Z,13.90
2023-03-26T05:27:55.375Z,12.60
2023-03-26T05:30:22.676Z,12.30
2023-03-26T05:32:19.701Z,11.50
2023-03-26T05:35:07.729Z,12.40
2023-03-26T05:37:13.692Z,13.00
2023-03-26T05:38:42.892Z,14.30
2023-03-26T05:42:09.028Z,13.30
2023-03-26T05:44:05.252Z,13.70
2023-03-26T05:49:21.615Z,14.20
2023-03-26T05:54:13.692Z,13.70
2023-03-26T05:58:52.278Z,12.50
2023-03-26T06:03:19.686Z,14.60
2023-03-26T06:05:18.782Z,14.30
2023-03-26T06:12:02.892Z,14.60
2023-03-26T06:14:00.393Z,14.90
2023-03-26T06:16:00.212Z,13.30
2023-03-26T06:22:06.120Z,13.40
2023-03-26T06:24:04.317Z,13.00
2023-03-26T06:26:03.793Z,13.50
2023-03-26T06:28:37.724Z,12.70
2023-03-26T06:32:53.308Z,12.30
2023-03-26T06:34:01.223Z,14.20
2023-03-26T06:36:23.276Z,13.10
2023-03-26T06:39:17.980Z,12.70
2023-03-26T06:43:08.989Z,12.00
2023-03-26T06:48:25.692Z,13.60
2023-03-26T06:50:23.580Z,13.20
2023-03-26T06:52:52.415Z,12.40
2023-03-26T06:55:18.015Z,12.20
2023-03-26T06:58:07.899Z,11.80
2023-03-26T07:01:29.660Z,13.10
2023-03-26T07:02:56.616Z,14.00
2023-03-26T07:04:27.449Z,14.30
2023-03-26T07:09:46.934Z,13.80
2023-03-26T07:15:01.971Z,13.60
2023-03-26T07:27:38.494Z,12.20
2023-03-26T07:32:25.888Z,13.00
2023-03-26T07:34:35.986Z,12.30
2023-03-26T07:38:52.633Z,14.20
2023-03-26T07:40:21.719Z,14.00
2023-03-26T07:45:12.868Z,14.10
2023-03-26T07:46:45.861Z,14.10
2023-03-26T07:49:27.051Z,13.50
2023-03-26T07:53:13.580Z,13.00
2023-03-26T07:55:47.739Z,13.90
2023-03-26T07:57:18.908Z,13.80
2023-03-26T08:03:43.516Z,13.10
2023-03-26T08:07:12.261Z,13.20
2023-03-26T08:10:32.501Z,14.00
2023-03-26T08:13:02.969Z,14.00
2023-03-26T08:14:31.833Z,13.90
2023-03-26T08:22:06.715Z,14.80
2023-03-26T08:30:44.690Z,11.30
2023-03-26T08:34:17.803Z,11.50
2023-03-26T08:37:17.890Z,12.50
2023-03-26T08:41:02.724Z,9.90
2023-03-26T08:42:32.636Z,9.50
2023-03-26T08:45:42.984Z,8.10
2023-03-26T08:48:02.144Z,7.90
2023-03-26T08:50:26.723Z,6.90
2023-03-26T08:51:33.693Z,6.30
2023-03-26T08:55:28.886Z,6.40
2023-03-26T09:02:47.016Z,6.10
2023-03-26T09:06:33.932Z,7.60
2023-03-26T09:10:56.911Z,6.80
2023-03-26T09:13:49.766Z,6.50
2023-03-26T09:19:53.834Z,6.20
2023-03-26T09:21:40.875Z,6.20
2023-03-26T09:31:54.237Z,6.90
2023-03-26T09:33:52.599Z,7.50
2023-03-26T09:42:25.769Z,8.30
2023-03-26T09:43:57.612Z,9.10
2023-03-26T09:46:47.232Z,6.70
2023-03-26T09:49:48.408Z,7.40
2023-03-26T09:55:08.734Z,7.20
2023-03-26T09:56:42.558Z,7.10
2023-03-26T09:58:31.379Z,6.80
2023-03-26T10:00:02.222Z,6.40
2023-03-26T10:03:46.620Z,7.60
2023-03-26T10:06:08.195Z,6.60
2023-03-26T10:09:37.491Z,6.80
2023-03-26T10:14:04.582Z,8.60
2023-03-26T10:21:57.244Z,7.30
2023-03-26T10:29:21.737Z,8.40
2023-03-26T10:30:48.803Z,7.60
2023-03-26T10:32:45.811Z,7.40
2023-03-26T10:34:29.310Z,6.90
2023-03-26T10:36:37.749Z,8.00
2023-03-26T10:41:43.258Z,8.80
2023-03-26T10:43:57.858Z,7.90
2023-03-26T10:47:14.294Z,8.00
2023-03-26T10:50:37.720Z,10.30
2023-03-26T10:55:03.800Z,10.40
2023-03-26T10:57:02.865Z,9.60
2023-03-26T11:00:22.725Z,9.00
2023-03-26T11:04:57.535Z,10.00
2023-03-26T11:06:26.491Z,10.20
2023-03-26T11:11:41.467Z,8.90
2023-03-26T11:13:11.471Z,9.30
2023-03-26T11:20:54.827Z,11.20
2023-03-26T11:24:04.932Z,9.90
2023-03-26T11:28:14.317Z,8.70
2023-03-26T11:37:11.509Z,7.00
2023-03-26T11:39:16.330Z,6.40
2023-03-26T11:45:31.767Z,7.70
2023-03-26T11:49:06.718Z,5.40
2023-03-26T11:52:07.170Z,6.40
2023-03-26T11:54:08.112Z,6.50
2023-03-26T11:55:54.877Z,6.20
2023-03-26T11:58:53.873Z,6.70
2023-03-26T12:00:22.849Z,7.60
2023-03-26T12:01:51.974Z,5.80
2023-03-26T12:03:41.089Z,5.80
2023-03-26T12:05:10.608Z,9.40
2023-03-26T12:07:14.325Z,7.90
2023-03-26T12:10:19.066Z,6.50
2023-03-26T12:11:41.842Z,6.30
2023-03-26T12:14:31.904Z,7.90
2023-03-26T12:16:02.079Z,7.60
2023-03-26T12:18:50.230Z,10.20
2023-03-26T12:22:23.244Z,7.90
2023-03-26T12:23:55.054Z,11.20
2023-03-26T12:26:51.696Z,7.60
2023-03-26T12:31:13.972Z,6.70
2023-03-26T12:32:46.677Z,9.70
2023-03-26T12:34:13.840Z,5.80
2023-03-26T12:40:07.250Z,7.00
2023-03-26T12:44:44.554Z,8.10
2023-03-26T12:48:19.367Z,7.10
2023-03-26T12:50:34.502Z,6.60
2023-03-26T12:51:20.421Z,6.80
2023-03-26T12:52:40.165Z,7.90
2023-03-26T12:54:07.930Z,8.00
2023-03-26T12:56:06.859Z,7.30
2023-03-26T13:00:35.229Z,6.90
2023-03-26T13:03:55.993Z,6.70
2023-03-26T13:05:22.951Z,9.10
2023-03-26T13:11:25.514Z,6.00
2023-03-26T13:13:46.154Z,5.80
2023-03-26T13:16:43.667Z,4.30
2023-03-26T13:18:15.505Z,4.00
2023-03-26T13:20:35.532Z,4.20
2023-03-26T13:24:25.958Z,4.10
2023-03-26T13:25:55.877Z,4.00
2023-03-26T13:31:03.118Z,4.30
2023-03-26T13:32:49.852Z,4.20
2023-03-26T13:34:53.695Z,3.70
2023-03-26T13:37:23.525Z,4.60
2023-03-26T13:39:20.230Z,4.80
2023-03-26T13:46:38.486Z,3.70
2023-03-26T13:50:05.661Z,3.60
2023-03-26T13:51:15.576Z,4.10
2023-03-26T13:54:03.543Z,4.10
2023-03-26T13:56:02.491Z,3.20
2023-03-26T14:00:09.758Z,3.10
2023-03-26T14:02:58.794Z,2.70
2023-03-26T14:04:30.598Z,2.90
2023-03-26T14:08:31.706Z,2.70
2023-03-26T14:10:33.886Z,3.10
2023-03-26T14:12:31.114Z,3.20
2023-03-26T14:14:50.043Z,3.00
2023-03-26T14:18:29.951Z,2.90
2023-03-26T14:22:36.853Z,2.80
2023-03-26T14:27:21.619Z,4.10
2023-03-26T14:28:54.416Z,2.90
2023-03-26T14:30:20.425Z,3.70
2023-03-26T14:35:23.640Z,11.50
2023-03-26T14:40:01.622Z,3.30
2023-03-26T14:42:33.321Z,3.50
2023-03-26T14:44:23.000Z,3.30
2023-03-26T14:46:24.853Z,2.40
2023-03-26T14:48:25.067Z,2.60
2023-03-26T14:53:26.729Z,3.30
2023-03-26T14:54:53.693Z,3.30
2023-03-26T14:57:23.668Z,3.70
2023-03-26T15:01:44.347Z,3.70
2023-03-26T15:04:45.785Z,4.10
2023-03-26T15:09:22.631Z,6.60
2023-03-26T15:13:01.744Z,2.80
2023-03-26T15:14:29.663Z,4.20
2023-03-26T15:16:57.447Z,2.60
2023-03-26T15:18:27.299Z,4.90
2023-03-26T15:21:34.621Z,6.10
2023-03-26T15:29:06.536Z,4.80
2023-03-26T15:31:56.061Z,3.10
2023-03-26T15:44:24.232Z,3.20
2023-03-26T15:46:05.983Z,3.20
2023-03-26T15:48:35.308Z,3.70
2023-03-26T15:50:05.909Z,2.80
2023-03-26T15:53:22.283Z,3.00
2023-03-26T15:56:18.921Z,2.70
2023-03-26T15:58:50.974Z,2.90
2023-03-26T16:02:36.403Z,3.20
2023-03-26T16:04:37.206Z,3.00
2023-03-26T16:07:43.592Z,2.60
2023-03-26T16:09:44.379Z,2.80
2023-03-26T16:11:11.347Z,3.00
2023-03-26T16:14:13.416Z,3.30
2023-03-26T16:19:36.653Z,3.00
2023-03-26T16:22:21.532Z,2.60
2023-03-26T16:25:27.210Z,3.50
2023-03-26T16:29:19.362Z,3.40
2023-03-26T16:31:57.189Z,4.50
2023-03-26T16:35:21.906Z,6.90
2023-03-26T16:36:53.764Z,6.50
2023-03-26T16:39:51.489Z,3.10
2023-03-26T16:44:21.726Z,3.00
2023-03-26T16:52:01.794Z,3.20
2023-03-26T16:57:52.472Z,4.40
2023-03-26T17:00:06.405Z,3.10
2023-03-26T17:02:47.400Z,3.10
2023-03-26T17:06:42.916Z,3.80
2023-03-26T17:11:08.229Z,3.40
2023-03-26T17:12:08.232Z,3.60
2023-03-26T17:13:08.204Z,6.40
2023-03-26T17:17:04.916Z,5.60
2023-03-26T17:20:00.538Z,11.90
2023-03-26T17:23:27.121Z,30.40
2023-03-26T17:30:46.307Z,3.40
2023-03-26T17:32:45.158Z,3.60
2023-03-26T17:36:40.617Z,3.50
2023-03-26T17:38:39.548Z,5.60
2023-03-26T17:40:38.341Z,6.20
2023-03-26T17:42:07.229Z,4.20
2023-03-26T17:46:03.353Z,4.00
2023-03-26T17:51:51.090Z,3.00
2023-03-26T17:53:20.257Z,2.60
2023-03-26T17:55:18.113Z,3.20
2023-03-26T17:58:15.144Z,3.10
2023-03-26T18:01:11.363Z,5.40
2023-03-26T18:04:08.805Z,4.30
2023-03-26T18:11:59.296Z,4.10
2023-03-26T18:13:57.494Z,6.00
2023-03-26T18:17:24.524Z,4.70
2023-03-26T18:22:18.823Z,6.40
2023-03-26T18:24:17.632Z,3.30
2023-03-26T18:29:40.258Z,7.50
2023-03-26T18:31:09.193Z,4.90
2023-03-26T18:34:04.946Z,6.50
2023-03-26T18:35:34.816Z,7.60
2023-03-26T18:41:27.552Z,7.80
2023-03-26T18:43:34.752Z,3.40
2023-03-26T18:45:26.348Z,4.90
2023-03-26T18:51:16.943Z,4.80
2023-03-26T18:59:02.033Z,5.60
2023-03-26T19:00:53.347Z,9.20
2023-03-26T19:08:13.072Z,6.00
2023-03-26T19:10:02.263Z,3.60
2023-03-26T19:13:03.575Z,4.20
2023-03-26T19:16:43.446Z,4.00
2023-03-26T19:18:35.069Z,3.50
2023-03-26T19:20:21.842Z,3.60
2023-03-26T19:21:42.939Z,4.40
2023-03-26T19:22:21.789Z,4.00
2023-03-26T19:25:31.993Z,3.80
2023-03-26T19:27:02.083Z,2.80
2023-03-26T19:31:23.523Z,5.60
2023-03-26T19:33:29.748Z,4.70
2023-03-26T19:35:45.499Z,2.60
2023-03-26T19:38:45.369Z,3.90
2023-03-26T19:40:13.748Z,2.80
2023-03-26T19:43:37.360Z,3.50
2023-03-26T19:46:15.941Z,2.60
2023-03-26T19:47:52.084Z,2.50
2023-03-26T19:52:22.680Z,2.80
2023-03-26T19:56:01.537Z,4.30
2023-03-26T19:57:50.248Z,2.60
2023-03-26T19:59:52.757Z,7.20
2023-03-26T20:01:20.573Z,5.70
2023-03-26T20:03:23.030Z,6.90
2023-03-26T20:06:12.308Z,6.60
2023-03-26T20:07:13.043Z,5.90
2023-03-26T20:08:12.292Z,6.50
2023-03-26T20:10:41.741Z,5.30
2023-03-26T20:12:13.116Z,4.90
2023-03-26T20:14:05.831Z,3.30
2023-03-26T20:15:39.346Z,6.30
2023-03-26T20:18:15.935Z,2.70
2023-03-26T20:21:14.350Z,3.10
2023-03-26T20:22:43.728Z,3.40
2023-03-26T20:29:29.046Z,3.30
2023-03-26T20:31:49.662Z,2.30
2023-03-26T20:39:41.700Z,3.90
2023-03-26T20:41:59.036Z,2.80
2023-03-26T20:49:48.328Z,3.40
2023-03-26T20:52:09.501Z,3.20
2023-03-26T20:53:37.487Z,3.50
2023-03-26T20:55:06.559Z,3.50
2023-03-26T20:56:36.939Z,3.20
2023-03-26T20:59:32.183Z,4.00
2023-03-26T21:01:01.173Z,3.30
2023-03-26T21:02:32.093Z,2.90
2023-03-26T21:04:00.908Z,2.60
2023-03-26T21:05:28.895Z,3.70
2023-03-26T21:07:29.478Z,2.90
2023-03-26T21:09:38.440Z,3.40
2023-03-26T21:13:50.130Z,3.90
2023-03-26T21:19:52.081Z,2.60
2023-03-26T21:24:21.503Z,3.00
2023-03-26T21:27:37.919Z,3.00
2023-03-26T21:29:08.806Z,2.70
2023-03-26T21:33:14.582Z,3.10
2023-03-26T21:35:22.254Z,3.40
2023-03-26T21:36:55.187Z,3.60
2023-03-26T21:38:53.490Z,2.90
2023-03-26T21:40:24.981Z,2.60
2023-03-26T21:42:05.193Z,2.70
2023-03-26T21:44:46.405Z,2.60
2023-03-26T21:47:13.866Z,3.60
2023-03-26T21:50:18.363Z,2.90
2023-03-26T21:52:07.270Z,2.90
2023-03-26T21:53:39.110Z,2.90
2023-03-26T21:55:20.958Z,2.80
2023-03-26T21:56:50.359Z,3.00
2023-03-26T22:03:18.848Z,2.70
2023-03-26T22:05:40.880Z,3.10
2023-03-26T22:06:38.753Z,3.00
2023-03-26T22:07:17.668Z,3.10
2023-03-26T22:12:06.919Z,1.90
2023-03-26T22:13:33.043Z,2.50
2023-03-26T22:15:54.732Z,2.20
2023-03-26T22:17:24.212Z,2.70
2023-03-26T22:18:56.032Z,2.50
2023-03-26T22:25:03.994Z,3.00
2023-03-26T22:28:36.494Z,2.10
2023-03-26T22:30:08.517Z,2.90
2023-03-26T22:33:56.205Z,3.20
2023-03-26T22:35:50.356Z,2.90
2023-03-26T22:38:12.587Z,2.50
2023-03-26T22:44:24.885Z,2.20
2023-03-26T22:47:06.258Z,2.40
2023-03-26T22:51:11.239Z,2.70
2023-03-26T22:57:56.310Z,2.70
2023-03-26T22:59:45.886Z,2.50
2023-03-26T23:02:59.203Z,2.00
2023-03-26T23:03:59.170Z,2.50
2023-03-26T23:04:59.152Z,2.80
2023-03-26T23:05:59.157Z,3.10
2023-03-26T23:17:57.577Z,2.30
2023-03-26T23:19:27.653Z,3.30
2023-03-26T23:22:08.404Z,2.20
2023-03-26T23:25:34.048Z,2.40
2023-03-26T23:27:04.166Z,2.50
2023-03-26T23:29:03.278Z,3.20
2023-03-26T23:34:00.937Z,2.70
2023-03-26T23:37:16.559Z,2.60
2023-03-26T23:39:59.110Z,2.60
2023-03-26T23:42:29.266Z,2.80
2023-03-26T23:46:20.591Z,2.30
2023-03-26T23:55:12.625Z,2.40
